EST,Max TemperatureF,Mean TemperatureF,Min TemperatureF,Max Dew PointF,MeanDew PointF,Min DewpointF,Max Humidity, Mean Humidity, Min Humidity, Max Sea Level PressureIn, Mean Sea Level PressureIn, Min Sea Level PressureIn, Max VisibilityMiles, Mean VisibilityMiles, Min VisibilityMiles, Max Wind SpeedMPH, Mean Wind SpeedMPH, Max Gust SpeedMPH,PrecipitationIn, CloudCover, Events, WindDirDegrees
2013-2-1,17,12,6,7,5,1,79,68,62,30.44,30.40,30.35,10,10,10,12,10,,0.00,4,,245
2013-2-2,28,24,19,25,23,18,93,84,74,30.19,30.05,30.01,10,8,2,15,11,20,0.00,8,Snow,243
2013-2-3,24,20,15,21,16,12,93,85,79,30.13,30.05,29.99,10,9,4,14,7,21,0.00,7,Snow,280
2013-2-4,35,28,21,32,25,18,100,85,70,29.99,29.89,29.81,10,9,1,16,11,25,0.00,6,Snow,183
2013-2-5,37,32,26,32,29,25,93,85,75,29.99,29.93,29.86,10,8,4,9,3,,0.00,7,,223
2013-2-6,32,30,26,27,26,25,93,85,80,30.28,30.25,30.22,7,7,5,8,5,,0.00,6,,82
2013-2-7,55,42,30,39,33,28,93,71,47,30.13,30.00,29.86,10,8,5,7,2,,0.00,1,,161
2013-2-8,33,32,32,32,30,28,93,87,81,30.34,30.19,29.99,10,10,10,21,16,29,0.00,8,,312
2013-2-9,39,32,24,25,24,21,100,74,52,30.43,30.36,30.24,10,10,7,9,3,,0.00,0,,103
2013-2-10,50,42,33,46,36,27,87,74,50,30.12,29.94,29.77,10,10,10,21,10,30,0.00,7,Rain,166
2013-2-11,44,42,35,32,28,27,75,60,49,30.06,29.96,29.82,10,10,10,29,22,40,0.00,5,,251
2013-2-12,48,37,26,28,27,25,93,63,43,30.15,30.04,29.95,10,10,10,12,2,,0.00,0,,238
2013-2-13,42,35,28,30,27,25,93,77,49,29.88,29.85,29.81,10,8,7,9,6,,0.00,5,,308
2013-2-14,50,42,35,36,34,32,100,77,50,29.88,29.86,29.83,10,8,5,21,12,30,0.00,5,,204
2013-2-15,37,34,30,30,28,25,87,83,60,30.17,30.11,30.06,10,9,2,21,11,23,0.00,6,Snow,295
2013-2-16,26,24,21,18,15,12,86,69,55,30.13,30.11,30.09,10,10,10,17,11,25,0.00,3,,301
2013-2-17,32,24,15,12,8,1,79,52,27,30.26,30.21,30.17,10,10,10,6,2,,0.00,0,,270
2013-2-18,57,44,30,37,27,16,62,54,36,30.06,29.94,29.76,10,10,10,28,17,37,0.00,2,Rain,184
2013-2-19,30,28,24,27,20,14,86,70,59,30.15,29.97,29.83,10,10,10,25,20,37,0.00,8,,262
2013-2-20,26,22,17,14,11,9,73,62,50,30.34,30.29,30.24,10,10,10,16,10,,0.00,2,,320
2013-2-21,32,26,19,27,21,16,100,81,64,30.35,30.22,30.02,10,8,0,23,10,28,0.00,6,Snow,77
2013-2-22,37,34,32,36,33,32,100,94,81,29.98,29.94,29.87,10,7,0,14,6,21,0.00,8,Fog,216
2013-2-23,39,32,26,27,23,21,86,70,52,30.10,29.99,29.93,10,10,10,8,3,,0.00,0,,275
2013-2-24,41,32,23,28,25,21,100,77,56,30.15,30.12,30.08,10,9,5,5,1,,0.00,0,,340
2013-2-25,46,36,26,27,25,23,93,64,43,30.16,30.04,29.91,10,10,10,16,8,21,0.00,0,,75
2013-2-26,44,40,35,45,40,32,100,98,87,29.60,29.47,29.38,10,6,3,13,9,,0.00,8,Rain,147
2013-2-27,35,34,32,34,32,30,93,92,87,29.74,29.69,29.62,10,7,5,17,14,25,0.00,8,Rain-Snow,236
2013-2-28,37,34,32,32,32,30,100,89,81,29.98,29.87,29.76,10,8,4,16,11,18,0.00,8,Snow,287